createdAt,value
2023-04-11T00:01:37.682Z,3.85
2023-04-11T00:04:11.937Z,3.74
2023-04-11T00:06:39.186Z,3.71
2023-04-11T00:09:07.655Z,3.70
2023-04-11T00:11:34.668Z,3.63
2023-04-11T00:14:05.855Z,3.76
2023-04-11T00:16:36.103Z,3.74
2023-04-11T00:19:07.686Z,3.69
2023-04-11T00:21:35.944Z,3.66
2023-04-11T00:24:03.138Z,3.63
2023-04-11T00:26:30.634Z,3.67
2023-04-11T00:28:57.977Z,3.55
2023-04-11T00:31:25.815Z,3.94
2023-04-11T00:33:53.509Z,4.06
2023-04-11T00:36:21.165Z,4.07
2023-04-11T00:38:50.539Z,3.97
2023-04-11T00:41:19.895Z,3.90
2023-04-11T00:43:47.613Z,3.86
2023-04-11T00:46:15.241Z,3.84
2023-04-11T00:48:43.301Z,3.89
2023-04-11T00:51:10.986Z,3.82
2023-04-11T00:53:39.303Z,3.82
2023-04-11T00:56:08.922Z,3.70
2023-04-11T00:58:38.344Z,3.70
2023-04-11T01:03:48.674Z,3.67
2023-04-11T01:06:21.040Z,3.75
2023-04-11T01:08:50.481Z,3.66
2023-04-11T01:11:20.421Z,3.57
2023-04-11T01:13:54.343Z,3.54
2023-04-11T01:16:22.054Z,3.50
2023-04-11T01:18:50.153Z,3.58
2023-04-11T01:21:19.934Z,3.54
2023-04-11T01:23:49.169Z,3.58
2023-04-11T01:26:16.628Z,3.85
2023-04-11T01:28:43.990Z,3.95
2023-04-11T01:31:12.306Z,4.02
2023-04-11T01:33:41.590Z,3.89
2023-04-11T01:36:09.466Z,3.72
2023-04-11T01:38:36.736Z,3.79
2023-04-11T01:41:08.501Z,3.63
2023-04-11T01:43:36.093Z,3.62
2023-04-11T01:46:03.792Z,3.55
2023-04-11T01:48:34.663Z,3.50
2023-04-11T01:51:04.296Z,3.52
2023-04-11T01:53:33.993Z,3.74
2023-04-11T01:56:01.364Z,3.96
2023-04-11T01:58:28.820Z,4.12
2023-04-11T02:00:56.324Z,4.19
2023-04-11T02:03:23.669Z,4.08
2023-04-11T02:05:51.192Z,3.97
2023-04-11T02:08:18.769Z,3.87
2023-04-11T02:10:47.139Z,3.79
2023-04-11T02:13:14.784Z,3.79
2023-04-11T02:15:43.228Z,3.92
2023-04-11T02:18:16.402Z,4.03
2023-04-11T02:20:43.726Z,3.94
2023-04-11T02:23:11.412Z,3.98
2023-04-11T02:25:39.271Z,3.93
2023-04-11T02:28:08.081Z,3.86
2023-04-11T02:30:35.583Z,3.76
2023-04-11T02:33:04.677Z,3.77
2023-04-11T02:35:32.002Z,3.85
2023-04-11T02:37:59.734Z,3.84
2023-04-11T02:40:26.774Z,3.77
2023-04-11T02:42:55.380Z,3.84
2023-04-11T02:45:22.991Z,3.81
2023-04-11T02:47:50.396Z,3.97
2023-04-11T02:50:17.795Z,3.94
2023-04-11T02:52:49.637Z,3.92
2023-04-11T02:55:19.654Z,3.87
2023-04-11T02:57:46.777Z,3.85
2023-04-11T03:00:14.317Z,3.97
2023-04-11T03:02:41.963Z,4.02
2023-04-11T03:05:10.034Z,4.12
2023-04-11T03:07:38.712Z,4.05
2023-04-11T03:10:06.621Z,3.99
2023-04-11T03:12:34.031Z,3.97
2023-04-11T03:15:02.667Z,3.89
2023-04-11T03:17:31.035Z,3.94
2023-04-11T03:19:58.475Z,4.02
2023-04-11T03:22:26.255Z,4.00
2023-04-11T03:24:54.445Z,3.89
2023-04-11T03:27:23.897Z,3.97
2023-04-11T03:29:53.007Z,3.91
2023-04-11T03:32:21.517Z,3.91
2023-04-11T03:34:50.839Z,4.05
2023-04-11T03:37:18.939Z,4.02
2023-04-11T03:39:47.449Z,4.01
2023-04-11T03:42:14.863Z,4.00
2023-04-11T03:44:42.457Z,4.01
2023-04-11T03:47:09.829Z,4.12
2023-04-11T03:49:37.347Z,4.07
2023-04-11T03:52:07.716Z,4.15
2023-04-11T03:54:37.904Z,4.07
2023-04-11T03:57:05.258Z,4.21
2023-04-11T03:59:33.692Z,4.19
2023-04-11T04:02:01.161Z,4.26
2023-04-11T04:04:29.345Z,4.24
2023-04-11T04:06:57.182Z,4.24
2023-04-11T04:09:25.664Z,4.24
2023-04-11T04:11:53.309Z,4.26
2023-04-11T04:14:21.526Z,4.21
2023-04-11T04:16:49.491Z,4.25
2023-04-11T04:19:16.982Z,4.21
2023-04-11T04:21:46.160Z,4.22
2023-04-11T04:24:19.043Z,4.11
2023-04-11T04:26:50.326Z,4.14
2023-04-11T04:29:18.652Z,4.15
2023-04-11T04:31:50.943Z,4.19
2023-04-11T04:34:22.182Z,4.20
2023-04-11T04:36:49.757Z,4.18
2023-04-11T04:39:19.508Z,4.20
2023-04-11T04:41:49.946Z,4.28
2023-04-11T04:44:22.774Z,4.34
2023-04-11T04:46:59.380Z,4.34
2023-04-11T04:49:26.872Z,4.33
2023-04-11T04:51:54.387Z,4.35
2023-04-11T04:54:21.897Z,4.28
2023-04-11T04:56:55.868Z,4.37
2023-04-11T04:59:23.391Z,4.44
2023-04-11T05:01:53.984Z,4.51
2023-04-11T05:04:21.665Z,4.43
2023-04-11T05:06:49.141Z,4.51
2023-04-11T05:09:18.272Z,4.56
2023-04-11T05:11:45.949Z,4.62
2023-04-11T05:14:13.389Z,4.64
2023-04-11T05:16:42.580Z,4.71
2023-04-11T05:19:10.102Z,4.77
2023-04-11T05:21:43.276Z,4.77
2023-04-11T05:24:10.917Z,4.82
2023-04-11T05:26:38.316Z,4.90
2023-04-11T05:29:07.080Z,5.01
2023-04-11T05:31:34.213Z,5.08
2023-04-11T05:34:02.788Z,5.10
2023-04-11T05:36:30.402Z,5.08
2023-04-11T05:38:57.584Z,5.14
2023-04-11T05:41:25.269Z,5.24
2023-04-11T05:43:52.595Z,5.35
2023-04-11T05:46:19.920Z,5.39
2023-04-11T05:48:47.507Z,5.46
2023-04-11T05:51:14.899Z,5.51
2023-04-11T05:53:42.365Z,5.60
2023-04-11T05:56:10.054Z,5.72
2023-04-11T05:58:38.065Z,5.84
2023-04-11T06:01:07.721Z,5.89
2023-04-11T06:03:35.613Z,5.95
2023-04-11T06:06:03.189Z,5.97
2023-04-11T06:08:30.669Z,5.99
2023-04-11T06:11:00.334Z,6.15
2023-04-11T06:13:33.790Z,6.18
2023-04-11T06:16:07.805Z,6.26
2023-04-11T06:18:35.446Z,6.26
2023-04-11T06:21:05.008Z,6.35
2023-04-11T06:23:32.375Z,6.30
2023-04-11T06:25:59.799Z,6.34
2023-04-11T06:28:27.492Z,6.42
2023-04-11T06:30:54.750Z,6.39
2023-04-11T06:33:24.196Z,6.39
2023-04-11T06:35:51.845Z,6.22
2023-04-11T06:38:25.241Z,6.15
2023-04-11T06:40:55.037Z,6.11
2023-04-11T06:43:22.704Z,6.07
2023-04-11T06:45:50.234Z,6.07
2023-04-11T06:48:18.478Z,6.14
2023-04-11T06:50:46.312Z,6.16
2023-04-11T06:53:13.541Z,6.30
2023-04-11T06:55:41.072Z,6.10
2023-04-11T06:58:08.467Z,6.11
2023-04-11T07:00:36.472Z,6.27
2023-04-11T07:03:08.223Z,6.39
2023-04-11T07:05:38.291Z,6.55
2023-04-11T07:08:07.590Z,6.60
2023-04-11T07:10:34.996Z,6.55
2023-04-11T07:13:02.397Z,6.53
2023-04-11T07:15:29.577Z,6.59
2023-04-11T07:17:56.805Z,6.77
2023-04-11T07:20:31.388Z,6.79
2023-04-11T07:22:58.520Z,6.94
2023-04-11T07:25:33.973Z,6.99
2023-04-11T07:28:01.524Z,7.22
2023-04-11T07:30:30.386Z,7.19
2023-04-11T07:32:58.023Z,7.13
2023-04-11T07:35:25.596Z,7.05
2023-04-11T07:37:54.085Z,7.26
2023-04-11T07:40:21.410Z,7.29
2023-04-11T07:42:48.827Z,7.42
2023-04-11T07:45:16.369Z,7.47
2023-04-11T07:47:43.743Z,7.69
2023-04-11T07:50:11.676Z,7.75
2023-04-11T07:52:39.218Z,7.82
2023-04-11T07:55:06.979Z,7.87
2023-04-11T07:57:34.148Z,7.86
2023-04-11T08:00:01.564Z,8.10
2023-04-11T08:02:28.922Z,8.19
2023-04-11T08:04:57.472Z,8.12
2023-04-11T08:07:24.937Z,7.99
2023-04-11T08:09:52.443Z,7.93
2023-04-11T08:12:19.916Z,8.05
2023-04-11T08:14:47.390Z,8.10
2023-04-11T08:17:26.983Z,8.18
2023-04-11T08:20:02.068Z,8.28
2023-04-11T08:22:31.033Z,8.45
2023-04-11T08:24:58.433Z,8.57
2023-04-11T08:27:26.278Z,8.77
2023-04-11T08:29:53.514Z,8.70
2023-04-11T08:32:21.153Z,8.60
2023-04-11T08:35:00.802Z,8.67
2023-04-11T08:37:32.032Z,8.91
2023-04-11T08:39:59.428Z,9.03
2023-04-11T08:42:33.300Z,9.14
2023-04-11T08:45:04.388Z,9.30
2023-04-11T08:47:46.435Z,9.17
2023-04-11T08:50:14.788Z,9.19
2023-04-11T08:52:45.188Z,9.29
2023-04-11T08:55:13.158Z,9.49
2023-04-11T08:57:40.585Z,9.67
2023-04-11T09:00:19.486Z,9.85
2023-04-11T09:03:01.614Z,9.80
2023-04-11T09:05:30.105Z,10.00
2023-04-11T09:08:02.556Z,9.85
2023-04-11T09:10:29.718Z,9.83
2023-04-11T09:12:59.625Z,10.06
2023-04-11T09:15:32.171Z,10.23
2023-04-11T09:18:01.093Z,10.32
2023-04-11T09:20:32.063Z,10.40
2023-04-11T09:22:59.362Z,10.57
2023-04-11T09:25:26.910Z,10.47
2023-04-11T09:28:11.228Z,10.72
2023-04-11T09:30:38.687Z,10.82
2023-04-11T09:33:30.314Z,11.17
2023-04-11T09:35:58.572Z,11.52
2023-04-11T09:38:44.508Z,11.50
2023-04-11T09:41:12.949Z,11.47
2023-04-11T09:43:56.092Z,11.67
2023-04-11T09:46:24.230Z,11.59
2023-04-11T09:48:53.130Z,11.49
2023-04-11T09:51:35.267Z,11.67
2023-04-11T09:54:06.271Z,11.80
2023-04-11T09:56:36.792Z,11.81
2023-04-11T09:59:05.748Z,11.77
2023-04-11T10:01:39.672Z,12.01
2023-04-11T10:04:07.107Z,12.05
2023-04-11T10:06:48.467Z,12.04
2023-04-11T10:09:17.266Z,12.07
2023-04-11T10:11:46.374Z,12.12
2023-04-11T10:14:38.703Z,12.19
2023-04-11T10:17:24.298Z,12.34
2023-04-11T10:19:58.925Z,12.44
2023-04-11T10:22:41.918Z,12.52
2023-04-11T10:25:18.944Z,12.62
2023-04-11T10:27:53.968Z,12.52
2023-04-11T10:30:41.587Z,12.49
2023-04-11T10:33:17.822Z,12.57
2023-04-11T10:36:10.858Z,12.80
2023-04-11T10:38:48.779Z,13.13
2023-04-11T10:41:25.844Z,13.17
2023-04-11T10:44:05.111Z,13.26
2023-04-11T10:46:49.881Z,13.32
2023-04-11T10:49:40.775Z,13.35
2023-04-11T10:52:24.954Z,13.44
2023-04-11T10:54:54.318Z,13.37
2023-04-11T10:57:23.262Z,13.60
2023-04-11T10:59:50.857Z,13.90
2023-04-11T11:02:20.321Z,14.02
2023-04-11T11:04:50.226Z,14.13
2023-04-11T11:07:17.790Z,14.25
2023-04-11T11:09:52.986Z,14.40
2023-04-11T11:12:20.660Z,14.31
2023-04-11T11:14:48.126Z,14.54
2023-04-11T11:17:17.591Z,14.60
2023-04-11T11:19:48.119Z,14.76
2023-04-11T11:22:26.272Z,14.87
2023-04-11T11:24:53.822Z,14.99
2023-04-11T11:27:24.336Z,15.07
2023-04-11T11:29:53.326Z,15.08
2023-04-11T11:32:30.157Z,15.04
2023-04-11T11:34:59.155Z,15.12
2023-04-11T11:37:26.446Z,14.90
2023-04-11T11:39:53.989Z,14.52
2023-04-11T11:42:21.476Z,14.18
2023-04-11T11:44:48.787Z,14.20
2023-04-11T11:47:18.299Z,14.22
2023-04-11T11:49:46.661Z,14.02
2023-04-11T11:52:41.011Z,14.00
2023-04-11T11:55:29.796Z,13.95
2023-04-11T11:58:02.578Z,13.91
2023-04-11T12:00:32.824Z,13.82
2023-04-11T12:03:01.195Z,13.87
2023-04-11T12:05:32.373Z,13.86
2023-04-11T12:08:08.451Z,13.82
2023-04-11T12:10:42.706Z,13.78
2023-04-11T12:13:20.835Z,13.66
2023-04-11T12:15:56.469Z,13.65
2023-04-11T12:18:26.634Z,13.44
2023-04-11T12:20:54.936Z,13.47
2023-04-11T12:23:24.090Z,13.38
2023-04-11T12:25:51.775Z,13.26
2023-04-11T12:28:19.446Z,13.18
2023-04-11T12:30:46.990Z,13.00
2023-04-11T12:33:15.294Z,12.92
2023-04-11T12:35:42.799Z,12.85
2023-04-11T12:38:11.922Z,12.86
2023-04-11T12:41:13.967Z,12.73
2023-04-11T12:43:43.808Z,12.63
2023-04-11T12:46:12.032Z,12.52
2023-04-11T12:48:39.535Z,12.21
2023-04-11T12:51:07.038Z,12.16
2023-04-11T12:53:34.360Z,12.05
2023-04-11T12:56:02.007Z,11.77
2023-04-11T12:58:35.787Z,11.20
2023-04-11T13:01:02.729Z,10.99
2023-04-11T13:03:32.122Z,10.85
2023-04-11T13:05:59.364Z,10.58
2023-04-11T13:08:27.632Z,10.56
2023-04-11T13:10:56.033Z,10.40
2023-04-11T13:13:25.084Z,10.25
2023-04-11T13:15:52.432Z,10.21
2023-04-11T13:18:19.819Z,10.16
2023-04-11T13:20:47.231Z,10.01
2023-04-11T13:23:16.643Z,10.03
2023-04-11T13:25:45.194Z,10.10
2023-04-11T13:28:12.878Z,10.30
2023-04-11T13:30:41.510Z,10.29
2023-04-11T13:33:09.097Z,10.23
2023-04-11T13:35:36.682Z,10.03
2023-04-11T13:38:05.488Z,10.15
2023-04-11T13:40:34.008Z,10.29
2023-04-11T13:43:03.769Z,10.48
2023-04-11T13:46:00.716Z,10.20
2023-04-11T13:48:28.140Z,10.02
2023-04-11T13:50:57.895Z,9.90
2023-04-11T13:53:26.273Z,9.78
2023-04-11T13:55:53.504Z,9.94
2023-04-11T13:58:21.374Z,10.06
2023-04-11T14:00:50.725Z,10.13
2023-04-11T14:03:18.940Z,9.44
2023-04-11T14:05:53.818Z,8.86
2023-04-11T14:08:22.151Z,8.69
2023-04-11T14:10:49.472Z,8.47
2023-04-11T14:13:17.071Z,8.35
2023-04-11T14:15:45.084Z,8.26
2023-04-11T14:18:13.552Z,8.28
2023-04-11T14:20:41.217Z,8.33
2023-04-11T14:23:11.352Z,8.36
2023-04-11T14:25:39.465Z,8.36
2023-04-11T14:28:08.397Z,8.31
2023-04-11T14:30:36.489Z,8.13
2023-04-11T14:33:04.020Z,8.06
2023-04-11T14:35:31.868Z,8.26
2023-04-11T14:37:59.433Z,8.31
2023-04-11T14:40:32.871Z,8.46
2023-04-11T14:43:00.548Z,8.58
2023-04-11T14:45:27.820Z,8.55
2023-04-11T14:47:56.925Z,8.53
2023-04-11T14:50:24.772Z,8.68
2023-04-11T14:52:55.305Z,8.68
2023-04-11T14:55:23.063Z,8.70
2023-04-11T14:57:53.799Z,8.87
2023-04-11T15:00:27.493Z,8.88
2023-04-11T15:02:56.562Z,8.78
2023-04-11T15:05:24.588Z,8.70
2023-04-11T15:07:53.417Z,8.56
2023-04-11T15:10:23.558Z,8.55
2023-04-11T15:12:51.923Z,8.41
2023-04-11T15:15:19.622Z,8.32
2023-04-11T15:18:11.085Z,8.37
2023-04-11T15:20:40.611Z,8.29
2023-04-11T15:23:08.067Z,8.26
2023-04-11T15:25:36.575Z,8.30
2023-04-11T15:28:06.258Z,8.36
2023-04-11T15:30:35.108Z,8.43
2023-04-11T15:33:03.099Z,8.31
2023-04-11T15:35:30.703Z,8.37
2023-04-11T15:38:00.762Z,8.40
2023-04-11T15:40:28.212Z,8.39
2023-04-11T15:42:57.491Z,8.42
2023-04-11T15:45:24.891Z,8.37
2023-04-11T15:47:52.428Z,8.37
2023-04-11T15:50:28.980Z,8.33
2023-04-11T15:52:57.859Z,8.19
2023-04-11T15:55:25.592Z,8.32
2023-04-11T15:57:53.075Z,8.29
2023-04-11T16:00:22.769Z,8.08
2023-04-11T16:02:50.722Z,8.02
2023-04-11T16:05:21.241Z,8.20
2023-04-11T16:07:49.058Z,8.12
2023-04-11T16:10:16.471Z,8.03
2023-04-11T16:12:50.255Z,7.87
2023-04-11T16:15:18.225Z,7.74
2023-04-11T16:17:46.778Z,7.63
2023-04-11T16:20:18.944Z,7.60
2023-04-11T16:22:47.550Z,7.59
2023-04-11T16:25:21.681Z,7.56
2023-04-11T16:27:51.656Z,7.58
2023-04-11T16:30:19.358Z,7.63
2023-04-11T16:32:48.779Z,7.73
2023-04-11T16:35:16.026Z,7.78
2023-04-11T16:37:44.515Z,7.66
2023-04-11T16:40:12.542Z,7.57
2023-04-11T16:42:40.361Z,7.64
2023-04-11T16:45:11.192Z,7.73
2023-04-11T16:47:39.585Z,7.77
2023-04-11T16:50:08.430Z,7.62
2023-04-11T16:52:35.802Z,7.64
2023-04-11T16:55:03.865Z,7.83
2023-04-11T16:57:38.994Z,7.83
2023-04-11T17:00:20.031Z,7.78
2023-04-11T17:02:47.408Z,7.82
2023-04-11T17:05:14.898Z,7.80
2023-04-11T17:07:48.416Z,7.82
2023-04-11T17:10:16.163Z,7.99
2023-04-11T17:12:43.414Z,8.12
2023-04-11T17:15:11.498Z,8.13
2023-04-11T17:17:45.089Z,8.03
2023-04-11T17:20:12.546Z,7.83
2023-04-11T17:22:41.752Z,7.79
2023-04-11T17:25:10.434Z,7.84
2023-04-11T17:27:41.194Z,7.99
2023-04-11T17:30:12.546Z,7.84
2023-04-11T17:32:41.152Z,7.91
2023-04-11T17:35:08.739Z,7.75
2023-04-11T17:37:37.922Z,7.75
2023-04-11T17:40:12.111Z,7.72
2023-04-11T17:42:42.005Z,7.71
2023-04-11T17:45:17.848Z,7.73
2023-04-11T17:47:52.468Z,7.46
2023-04-11T17:50:20.490Z,7.27
2023-04-11T17:52:49.955Z,7.37
2023-04-11T17:55:19.283Z,7.54
2023-04-11T17:57:50.550Z,7.49
2023-04-11T18:00:23.864Z,7.56
2023-04-11T18:02:54.908Z,7.50
2023-04-11T18:05:25.190Z,7.50
2023-04-11T18:07:57.704Z,7.30
2023-04-11T18:10:31.820Z,7.25
2023-04-11T18:12:59.564Z,7.03
2023-04-11T18:15:28.341Z,6.82
2023-04-11T18:17:56.934Z,6.81
2023-04-11T18:20:24.245Z,6.63
2023-04-11T18:22:55.048Z,6.51
2023-04-11T18:25:24.132Z,6.39
2023-04-11T18:27:52.181Z,6.33
2023-04-11T18:30:19.539Z,6.20
2023-04-11T18:32:49.745Z,6.16
2023-04-11T18:35:17.617Z,6.20
2023-04-11T18:37:45.240Z,6.15
2023-04-11T18:40:14.499Z,6.10
2023-04-11T18:42:49.250Z,6.12
2023-04-11T18:45:23.720Z,6.24
2023-04-11T18:47:51.734Z,6.20
2023-04-11T18:50:27.613Z,6.15
2023-04-11T18:52:57.475Z,6.11
2023-04-11T18:55:29.892Z,6.11
2023-04-11T18:58:00.089Z,6.11
2023-04-11T19:00:35.752Z,6.01
2023-04-11T19:03:03.732Z,5.99
2023-04-11T19:05:32.373Z,5.99
2023-04-11T19:08:00.950Z,5.99
2023-04-11T19:10:28.707Z,5.95
2023-04-11T19:12:56.408Z,5.94
2023-04-11T19:15:26.129Z,5.93
2023-04-11T19:17:55.454Z,5.98
2023-04-11T19:20:27.399Z,6.03
2023-04-11T19:22:55.925Z,6.03
2023-04-11T19:25:24.071Z,6.08
2023-04-11T19:27:53.468Z,6.11
2023-04-11T19:30:23.682Z,6.16
2023-04-11T19:32:52.470Z,6.19
2023-04-11T19:35:28.415Z,6.27
2023-04-11T19:38:00.488Z,6.22
2023-04-11T19:40:31.038Z,6.29
2023-04-11T19:43:02.552Z,6.21
2023-04-11T19:45:32.509Z,6.24
2023-04-11T19:48:03.327Z,6.20
2023-04-11T19:50:34.958Z,6.39
2023-04-11T19:53:04.135Z,6.44
2023-04-11T19:55:32.253Z,6.43
2023-04-11T19:58:00.698Z,6.37
2023-04-11T20:00:35.394Z,6.37
2023-04-11T20:03:10.393Z,6.44
2023-04-11T20:05:38.946Z,6.39
2023-04-11T20:08:09.117Z,6.31
2023-04-11T20:10:45.639Z,6.35
2023-04-11T20:13:14.275Z,6.18
2023-04-11T20:15:42.253Z,6.05
2023-04-11T20:18:11.543Z,6.18
2023-04-11T20:20:41.280Z,6.18
2023-04-11T20:23:16.885Z,6.09
2023-04-11T20:25:45.093Z,6.11
2023-04-11T20:28:13.135Z,6.02
2023-04-11T20:30:41.647Z,5.82
2023-04-11T20:33:09.492Z,5.79
2023-04-11T20:35:38.590Z,5.60
2023-04-11T20:38:06.307Z,5.56
2023-04-11T20:40:34.283Z,5.52
2023-04-11T20:43:08.755Z,5.42
2023-04-11T20:45:40.104Z,5.36
2023-04-11T20:48:09.059Z,5.24
2023-04-11T20:50:37.938Z,5.32
2023-04-11T20:53:05.603Z,5.34
2023-04-11T20:55:33.700Z,5.32
2023-04-11T20:58:01.600Z,5.58
2023-04-11T21:00:28.710Z,5.54
2023-04-11T21:02:56.065Z,5.53
2023-04-11T21:05:25.888Z,5.50
2023-04-11T21:07:55.888Z,5.53
2023-04-11T21:10:30.334Z,5.59
2023-04-11T21:12:58.913Z,5.52
2023-04-11T21:15:26.523Z,5.45
2023-04-11T21:17:54.786Z,5.40
2023-04-11T21:20:22.807Z,5.51
2023-04-11T21:22:55.038Z,5.36
2023-04-11T21:25:24.185Z,5.36
2023-04-11T21:27:58.879Z,5.28
2023-04-11T21:30:26.308Z,5.19
2023-04-11T21:32:53.903Z,4.98
2023-04-11T21:35:22.422Z,5.00
2023-04-11T21:37:51.023Z,4.89
2023-04-11T21:40:20.262Z,4.76
2023-04-11T21:42:47.724Z,4.67
2023-04-11T21:45:15.861Z,4.66
2023-04-11T21:47:44.294Z,4.52
2023-04-11T21:50:11.828Z,4.47
2023-04-11T21:52:39.082Z,4.42
2023-04-11T21:55:09.084Z,4.37
2023-04-11T21:57:36.573Z,4.38
2023-04-11T22:00:05.439Z,4.30
2023-04-11T22:02:32.628Z,4.27
2023-04-11T22:05:06.296Z,4.24
2023-04-11T22:07:46.746Z,4.14
2023-04-11T22:10:14.348Z,4.09
2023-04-11T22:12:42.249Z,4.08
2023-04-11T22:15:12.865Z,4.01
2023-04-11T22:17:50.734Z,3.93
2023-04-11T22:20:18.853Z,3.91
2023-04-11T22:22:45.920Z,3.77
2023-04-11T22:25:15.046Z,3.75
2023-04-11T22:27:42.437Z,3.64
2023-04-11T22:30:11.410Z,3.62
2023-04-11T22:32:39.916Z,3.62
2023-04-11T22:35:09.604Z,3.62
2023-04-11T22:37:36.791Z,3.52
2023-04-11T22:40:06.233Z,3.40
2023-04-11T22:42:34.207Z,3.34
2023-04-11T22:45:01.700Z,3.24
2023-04-11T22:47:29.576Z,3.29
2023-04-11T22:49:58.113Z,3.30
2023-04-11T22:52:26.126Z,3.31
2023-04-11T22:54:55.202Z,3.29
2023-04-11T22:57:22.617Z,3.31
2023-04-11T22:59:50.171Z,3.19
2023-04-11T23:02:17.631Z,3.07
2023-04-11T23:04:45.405Z,3.14
2023-04-11T23:07:12.921Z,3.16
2023-04-11T23:09:40.418Z,3.19
2023-04-11T23:12:08.589Z,3.23
2023-04-11T23:14:36.801Z,3.25
2023-04-11T23:17:04.413Z,3.27
2023-04-11T23:19:34.430Z,3.24
2023-04-11T23:22:01.735Z,3.27
2023-04-11T23:24:29.312Z,3.20
2023-04-11T23:26:57.388Z,3.31
2023-04-11T23:29:24.851Z,3.29
2023-04-11T23:31:52.180Z,3.32
2023-04-11T23:34:21.274Z,3.28
2023-04-11T23:36:48.598Z,3.40
2023-04-11T23:39:16.897Z,3.40
2023-04-11T23:41:52.819Z,3.53
2023-04-11T23:44:20.127Z,3.51
2023-04-11T23:46:47.622Z,3.42
2023-04-11T23:49:15.091Z,3.26
2023-04-11T23:51:43.529Z,3.20
2023-04-11T23:54:11.045Z,3.22
2023-04-11T23:56:38.483Z,3.33
2023-04-11T23:59:06.052Z,3.29
